sensor_id;sensor_type;location;lat;lon;timestamp;pressure;altitude;pressure_sealevel;temperature;humidity
46876;BME280;32866;50.160;14.768;2024-03-06T00:02:10;99438.34;;;4.93;100.00
46876;BME280;32866;50.160;14.768;2024-03-06T00:04:37;99482.00;;;5.20;100.00
46876;BME280;32866;50.160;14.768;2024-03-06T00:07:03;99446.47;;;4.93;100.00
46876;BME280;32866;50.160;14.768;2024-03-06T00:09:29;99487.44;;;5.20;100.00
46876;BME280;32866;50.160;14.768;2024-03-06T00:11:55;99453.84;;;4.89;100.00
46876;BME280;32866;50.160;14.768;2024-03-06T00:14:22;99452.69;;;4.90;100.00
46876;BME280;32866;50.160;14.768;2024-03-06T00:16:49;99485.91;;;5.15;100.00
46876;BME280;32866;50.160;14.768;2024-03-06T00:19:18;99498.31;;;5.16;100.00
46876;BME280;32866;50.160;14.768;2024-03-06T00:21:44;99476.78;;;4.88;100.00
46876;BME280;32866;50.160;14.768;2024-03-06T00:24:13;99496.03;;;5.11;100.00
46876;BME280;32866;50.160;14.768;2024-03-06T00:26:41;99496.41;;;5.13;100.00
46876;BME280;32866;50.160;14.768;2024-03-06T00:29:07;99463.13;;;4.95;100.00
46876;BME280;32866;50.160;14.768;2024-03-06T00:31:33;99501.06;;;5.13;100.00
46876;BME280;32866;50.160;14.768;2024-03-06T00:33:58;99478.31;;;4.85;100.00
46876;BME280;32866;50.160;14.768;2024-03-06T00:36:24;99474.06;;;4.84;100.00
46876;BME280;32866;50.160;14.768;2024-03-06T00:38:50;99445.03;;;4.70;100.00
46876;BME280;32866;50.160;14.768;2024-03-06T00:41:16;99496.81;;;5.08;100.00
46876;BME280;32866;50.160;14.768;2024-03-06T00:43:43;99470.94;;;4.86;100.00
46876;BME280;32866;50.160;14.768;2024-03-06T00:46:09;99460.50;;;4.80;100.00
46876;BME280;32866;50.160;14.768;2024-03-06T00:48:35;99500.63;;;5.14;100.00
46876;BME280;32866;50.160;14.768;2024-03-06T00:51:01;99498.34;;;5.09;100.00
46876;BME280;32866;50.160;14.768;2024-03-06T00:53:27;99511.56;;;5.07;100.00
46876;BME280;32866;50.160;14.768;2024-03-06T00:55:53;99502.28;;;5.01;100.00
46876;BME280;32866;50.160;14.768;2024-03-06T00:58:19;99510.06;;;4.95;100.00
46876;BME280;32866;50.160;14.768;2024-03-06T01:00:45;99500.84;;;4.78;100.00
46876;BME280;32866;50.160;14.768;2024-03-06T01:03:11;99450.19;;;4.50;100.00
46876;BME280;32866;50.160;14.768;2024-03-06T01:05:37;99478.84;;;4.55;100.00
46876;BME280;32866;50.160;14.768;2024-03-06T01:08:03;99510.53;;;4.83;100.00
46876;BME280;32866;50.160;14.768;2024-03-06T01:10:29;99475.00;;;4.49;100.00
46876;BME280;32866;50.160;14.768;2024-03-06T01:12:55;99501.59;;;4.82;100.00
46876;BME280;32866;50.160;14.768;2024-03-06T01:15:21;99472.63;;;4.61;100.00
46876;BME280;32866;50.160;14.768;2024-03-06T01:17:47;99457.13;;;4.58;100.00
46876;BME280;32866;50.160;14.768;2024-03-06T01:20:13;99493.88;;;4.77;100.00
46876;BME280;32866;50.160;14.768;2024-03-06T01:22:39;99514.81;;;4.77;100.00
46876;BME280;32866;50.160;14.768;2024-03-06T01:25:05;99458.00;;;4.34;100.00
46876;BME280;32866;50.160;14.768;2024-03-06T01:27:33;99506.75;;;4.55;100.00
46876;BME280;32866;50.160;14.768;2024-03-06T01:29:59;99514.16;;;4.55;100.00
46876;BME280;32866;50.160;14.768;2024-03-06T01:32:25;99516.94;;;4.33;100.00
46876;BME280;32866;50.160;14.768;2024-03-06T01:34:51;99495.25;;;4.26;100.00
46876;BME280;32866;50.160;14.768;2024-03-06T01:37:17;99470.13;;;4.07;100.00
46876;BME280;32866;50.160;14.768;2024-03-06T01:39:43;99520.78;;;4.32;100.00
46876;BME280;32866;50.160;14.768;2024-03-06T01:42:09;99523.53;;;4.36;100.00
46876;BME280;32866;50.160;14.768;2024-03-06T01:44:35;99474.78;;;3.96;100.00
46876;BME280;32866;50.160;14.768;2024-03-06T01:47:01;99491.81;;;4.00;100.00
46876;BME280;32866;50.160;14.768;2024-03-06T01:49:28;99520.44;;;4.23;100.00
46876;BME280;32866;50.160;14.768;2024-03-06T01:51:54;99523.53;;;4.25;100.00
46876;BME280;32866;50.160;14.768;2024-03-06T01:54:21;99537.09;;;4.25;100.00
46876;BME280;32866;50.160;14.768;2024-03-06T01:56:49;99528.16;;;4.32;100.00
46876;BME280;32866;50.160;14.768;2024-03-06T01:59:17;99531.66;;;4.32;100.00
46876;BME280;32866;50.160;14.768;2024-03-06T02:01:44;99532.44;;;4.29;100.00
46876;BME280;32866;50.160;14.768;2024-03-06T02:04:11;99527.41;;;4.31;100.00
46876;BME280;32866;50.160;14.768;2024-03-06T02:06:40;99533.59;;;4.42;100.00
46876;BME280;32866;50.160;14.768;2024-03-06T02:09:07;99502.59;;;4.22;100.00
46876;BME280;32866;50.160;14.768;2024-03-06T02:11:33;99539.75;;;4.46;100.00
46876;BME280;32866;50.160;14.768;2024-03-06T02:13:59;99526.97;;;4.40;100.00
46876;BME280;32866;50.160;14.768;2024-03-06T02:16:25;99525.81;;;4.37;100.00
46876;BME280;32866;50.160;14.768;2024-03-06T02:18:53;99518.88;;;4.25;100.00
46876;BME280;32866;50.160;14.768;2024-03-06T02:21:20;99532.03;;;4.41;100.00
46876;BME280;32866;50.160;14.768;2024-03-06T02:23:46;99532.38;;;4.47;100.00
46876;BME280;32866;50.160;14.768;2024-03-06T02:26:12;99506.09;;;4.26;100.00
46876;BME280;32866;50.160;14.768;2024-03-06T02:28:38;99539.72;;;4.54;100.00
46876;BME280;32866;50.160;14.768;2024-03-06T02:31:04;99545.94;;;4.58;100.00
46876;BME280;32866;50.160;14.768;2024-03-06T02:33:32;99493.31;;;4.23;100.00
46876;BME280;32866;50.160;14.768;2024-03-06T02:35:59;99502.59;;;4.22;100.00
46876;BME280;32866;50.160;14.768;2024-03-06T02:38:25;99542.78;;;4.67;100.00
46876;BME280;32866;50.160;14.768;2024-03-06T02:40:51;99549.75;;;4.75;100.00
46876;BME280;32866;50.160;14.768;2024-03-06T02:43:17;99490.97;;;4.25;100.00
46876;BME280;32866;50.160;14.768;2024-03-06T02:45:43;99520.38;;;4.37;100.00
46876;BME280;32866;50.160;14.768;2024-03-06T02:48:10;99542.81;;;4.56;100.00
46876;BME280;32866;50.160;14.768;2024-03-06T02:50:36;99499.53;;;4.20;100.00
46876;BME280;32866;50.160;14.768;2024-03-06T02:53:02;99552.88;;;4.62;100.00
46876;BME280;32866;50.160;14.768;2024-03-06T02:55:28;99562.97;;;4.62;100.00
46876;BME280;32866;50.160;14.768;2024-03-06T02:57:54;99544.81;;;4.44;100.00
46876;BME280;32866;50.160;14.768;2024-03-06T03:00:20;99559.88;;;4.60;100.00
46876;BME280;32866;50.160;14.768;2024-03-06T03:02:47;99553.34;;;4.39;100.00
46876;BME280;32866;50.160;14.768;2024-03-06T03:05:13;99559.91;;;4.53;100.00
46876;BME280;32866;50.160;14.768;2024-03-06T03:07:39;99536.69;;;4.41;100.00
46876;BME280;32866;50.160;14.768;2024-03-06T03:10:06;99559.94;;;4.49;100.00
46876;BME280;32866;50.160;14.768;2024-03-06T03:12:32;99527.03;;;4.29;100.00
46876;BME280;32866;50.160;14.768;2024-03-06T03:14:58;99560.66;;;4.57;100.00
46876;BME280;32866;50.160;14.768;2024-03-06T03:17:24;99563.78;;;4.52;100.00
46876;BME280;32866;50.160;14.768;2024-03-06T03:19:50;99566.47;;;4.66;100.00
46876;BME280;32866;50.160;14.768;2024-03-06T03:22:16;99530.13;;;4.20;100.00
46876;BME280;32866;50.160;14.768;2024-03-06T03:24:42;99571.50;;;4.57;100.00
46876;BME280;32866;50.160;14.768;2024-03-06T03:27:08;99566.50;;;4.52;100.00
46876;BME280;32866;50.160;14.768;2024-03-06T03:29:34;99569.97;;;4.59;100.00
46876;BME280;32866;50.160;14.768;2024-03-06T03:32:00;99534.38;;;4.25;100.00
46876;BME280;32866;50.160;14.768;2024-03-06T03:34:26;99571.13;;;4.58;100.00
46876;BME280;32866;50.160;14.768;2024-03-06T03:36:53;99581.59;;;4.60;100.00
46876;BME280;32866;50.160;14.768;2024-03-06T03:39:19;99579.66;;;4.60;100.00
46876;BME280;32866;50.160;14.768;2024-03-06T03:41:48;99585.47;;;4.59;100.00
46876;BME280;32866;50.160;14.768;2024-03-06T03:44:15;99543.69;;;4.24;100.00
46876;BME280;32866;50.160;14.768;2024-03-06T03:46:42;99567.66;;;4.51;100.00
46876;BME280;32866;50.160;14.768;2024-03-06T03:49:09;99576.97;;;4.50;100.00
46876;BME280;32866;50.160;14.768;2024-03-06T03:51:39;99570.38;;;4.43;100.00
46876;BME280;32866;50.160;14.768;2024-03-06T03:54:05;99569.63;;;4.32;100.00
46876;BME280;32866;50.160;14.768;2024-03-06T03:56:32;99570.00;;;4.45;100.00
46876;BME280;32866;50.160;14.768;2024-03-06T03:58:59;99580.88;;;4.41;100.00
46876;BME280;32866;50.160;14.768;2024-03-06T04:01:25;99576.22;;;4.42;100.00
46876;BME280;32866;50.160;14.768;2024-03-06T04:03:51;99582.03;;;4.40;100.00
46876;BME280;32866;50.160;14.768;2024-03-06T04:06:17;99587.44;;;4.44;100.00
46876;BME280;32866;50.160;14.768;2024-03-06T04:08:44;99568.50;;;4.26;100.00
46876;BME280;32866;50.160;14.768;2024-03-06T04:11:10;99578.13;;;4.45;100.00
46876;BME280;32866;50.160;14.768;2024-03-06T04:13:38;99518.16;;;4.03;100.00
46876;BME280;32866;50.160;14.768;2024-03-06T04:16:04;99584.75;;;4.48;100.00
46876;BME280;32866;50.160;14.768;2024-03-06T04:18:31;99580.84;;;4.49;100.00
46876;BME280;32866;50.160;14.768;2024-03-06T04:21:07;99582.78;;;4.52;100.00
46876;BME280;32866;50.160;14.768;2024-03-06T04:23:35;99577.75;;;4.46;100.00
46876;BME280;32866;50.160;14.768;2024-03-06T04:26:01;99583.94;;;4.51;100.00
46876;BME280;32866;50.160;14.768;2024-03-06T04:28:27;99530.16;;;4.09;100.00
46876;BME280;32866;50.160;14.768;2024-03-06T04:30:54;99595.59;;;4.40;100.00
46876;BME280;32866;50.160;14.768;2024-03-06T04:33:19;99588.63;;;4.43;100.00
46876;BME280;32866;50.160;14.768;2024-03-06T04:35:46;99542.94;;;4.02;100.00
46876;BME280;32866;50.160;14.768;2024-03-06T04:38:12;99546.81;;;4.08;100.00
46876;BME280;32866;50.160;14.768;2024-03-06T04:40:39;99588.63;;;4.43;100.00
46876;BME280;32866;50.160;14.768;2024-03-06T04:43:05;99544.50;;;4.06;100.00
46876;BME280;32866;50.160;14.768;2024-03-06T04:45:33;99595.19;;;4.45;100.00
46876;BME280;32866;50.160;14.768;2024-03-06T04:47:59;99585.53;;;4.30;100.00
46876;BME280;32866;50.160;14.768;2024-03-06T04:50:25;99582.78;;;4.37;100.00
46876;BME280;32866;50.160;14.768;2024-03-06T04:52:51;99602.94;;;4.43;100.00
46876;BME280;32866;50.160;14.768;2024-03-06T04:55:17;99601.81;;;4.41;100.00
46876;BME280;32866;50.160;14.768;2024-03-06T04:57:48;99604.91;;;4.36;100.00
46876;BME280;32866;50.160;14.768;2024-03-06T05:00:15;99610.31;;;4.32;100.00
46876;BME280;32866;50.160;14.768;2024-03-06T05:02:42;99599.47;;;4.28;100.00
46876;BME280;32866;50.160;14.768;2024-03-06T05:05:09;99565.44;;;4.02;100.00
46876;BME280;32866;50.160;14.768;2024-03-06T05:07:35;99553.81;;;3.87;100.00
46876;BME280;32866;50.160;14.768;2024-03-06T05:10:01;99556.91;;;3.89;100.00
46876;BME280;32866;50.160;14.768;2024-03-06T05:12:27;99612.66;;;4.30;100.00
46876;BME280;32866;50.160;14.768;2024-03-06T05:14:54;99568.50;;;3.94;100.00
46876;BME280;32866;50.160;14.768;2024-03-06T05:17:21;99613.03;;;4.32;100.00
46876;BME280;32866;50.160;14.768;2024-03-06T05:19:47;99623.50;;;4.34;100.00
46876;BME280;32866;50.160;14.768;2024-03-06T05:22:14;99616.94;;;4.31;100.00
46876;BME280;32866;50.160;14.768;2024-03-06T05:24:40;99620.41;;;4.35;100.00
46876;BME280;32866;50.160;14.768;2024-03-06T05:27:06;99592.16;;;4.07;100.00
46876;BME280;32866;50.160;14.768;2024-03-06T05:29:32;99601.06;;;4.04;100.00
46876;BME280;32866;50.160;14.768;2024-03-06T05:31:58;99621.97;;;4.25;100.00
46876;BME280;32866;50.160;14.768;2024-03-06T05:34:24;99632.03;;;4.28;100.00
46876;BME280;32866;50.160;14.768;2024-03-06T05:36:50;99625.47;;;4.26;100.00
46876;BME280;32866;50.160;14.768;2024-03-06T05:39:16;99629.72;;;4.34;100.00
46876;BME280;32866;50.160;14.768;2024-03-06T05:41:43;99631.25;;;4.35;100.00
46876;BME280;32866;50.160;14.768;2024-03-06T05:44:09;99618.88;;;4.20;100.00
46876;BME280;32866;50.160;14.768;2024-03-06T05:46:36;99610.75;;;4.02;100.00
46876;BME280;32866;50.160;14.768;2024-03-06T05:49:02;99647.91;;;4.37;100.00
46876;BME280;32866;50.160;14.768;2024-03-06T05:51:28;99646.00;;;4.38;100.00
46876;BME280;32866;50.160;14.768;2024-03-06T05:53:54;99598.75;;;3.96;100.00
46876;BME280;32866;50.160;14.768;2024-03-06T05:56:20;99646.38;;;4.40;100.00
46876;BME280;32866;50.160;14.768;2024-03-06T05:58:46;99651.78;;;4.43;100.00
46876;BME280;32866;50.160;14.768;2024-03-06T06:01:14;99652.19;;;4.49;100.00
46876;BME280;32866;50.160;14.768;2024-03-06T06:03:41;99662.25;;;4.59;100.00
46876;BME280;32866;50.160;14.768;2024-03-06T06:06:07;99658.38;;;4.60;100.00
46876;BME280;32866;50.160;14.768;2024-03-06T06:08:36;99666.50;;;4.60;100.00
46876;BME280;32866;50.160;14.768;2024-03-06T06:11:02;99676.22;;;4.61;100.00
46876;BME280;32866;50.160;14.768;2024-03-06T06:13:31;99664.19;;;4.59;100.00
46876;BME280;32866;50.160;14.768;2024-03-06T06:16:00;99680.88;;;4.64;100.00
46876;BME280;32866;50.160;14.768;2024-03-06T06:18:28;99637.47;;;4.39;100.00
46876;BME280;32866;50.160;14.768;2024-03-06T06:20:54;99688.59;;;4.73;100.00
46876;BME280;32866;50.160;14.768;2024-03-06T06:23:20;99689.75;;;4.79;100.00
46876;BME280;32866;50.160;14.768;2024-03-06T06:25:46;99685.47;;;4.86;100.00
46876;BME280;32866;50.160;14.768;2024-03-06T06:28:12;99644.41;;;4.62;100.00
46876;BME280;32866;50.160;14.768;2024-03-06T06:30:38;99645.19;;;4.70;100.00
46876;BME280;32866;50.160;14.768;2024-03-06T06:33:04;99692.38;;;5.15;100.00
46876;BME280;32866;50.160;14.768;2024-03-06T06:35:31;99695.44;;;5.21;100.00
46876;BME280;32866;50.160;14.768;2024-03-06T06:37:57;99676.91;;;4.98;100.00
46876;BME280;32866;50.160;14.768;2024-03-06T06:40:23;99682.28;;;5.19;100.00
46876;BME280;32866;50.160;14.768;2024-03-06T06:42:49;99697.72;;;5.41;100.00
46876;BME280;32866;50.160;14.768;2024-03-06T06:45:16;99709.69;;;5.54;100.00
46876;BME280;32866;50.160;14.768;2024-03-06T06:47:42;99713.94;;;5.58;100.00
46876;BME280;32866;50.160;14.768;2024-03-06T06:50:08;99686.06;;;5.44;100.00
46876;BME280;32866;50.160;14.768;2024-03-06T06:52:35;99670.53;;;5.41;100.00
46876;BME280;32866;50.160;14.768;2024-03-06T06:55:02;99719.19;;;5.94;100.00
46876;BME280;32866;50.160;14.768;2024-03-06T06:57:28;99718.03;;;5.99;100.00
46876;BME280;32866;50.160;14.768;2024-03-06T06:59:54;99700.97;;;5.84;100.00
46876;BME280;32866;50.160;14.768;2024-03-06T07:02:20;99716.03;;;6.07;100.00
46876;BME280;32866;50.160;14.768;2024-03-06T07:04:46;99671.16;;;5.73;100.00
46876;BME280;32866;50.160;14.768;2024-03-06T07:07:12;99667.22;;;5.78;100.00
46876;BME280;32866;50.160;14.768;2024-03-06T07:09:40;99726.06;;;6.17;100.00
46876;BME280;32866;50.160;14.768;2024-03-06T07:12:06;99667.22;;;5.82;100.00
46876;BME280;32866;50.160;14.768;2024-03-06T07:14:33;99709.06;;;6.02;100.00
46876;BME280;32866;50.160;14.768;2024-03-06T07:17:00;99723.63;;;6.30;100.00
46876;BME280;32866;50.160;14.768;2024-03-06T07:19:26;99715.56;;;6.19;100.00
46876;BME280;32866;50.160;14.768;2024-03-06T07:21:52;99685.28;;;6.10;100.00
46876;BME280;32866;50.160;14.768;2024-03-06T07:24:19;99665.97;;;5.93;100.00
46876;BME280;32866;50.160;14.768;2024-03-06T07:26:45;99680.69;;;6.00;100.00
46876;BME280;32866;50.160;14.768;2024-03-06T07:29:11;99730.50;;;6.49;100.00
46876;BME280;32866;50.160;14.768;2024-03-06T07:31:43;99734.69;;;6.61;100.00
46876;BME280;32866;50.160;14.768;2024-03-06T07:34:13;99729.16;;;6.68;100.00
46876;BME280;32866;50.160;14.768;2024-03-06T07:36:40;99736.00;;;6.87;100.00
46876;BME280;32866;50.160;14.768;2024-03-06T07:39:06;99738.19;;;7.03;100.00
46876;BME280;32866;50.160;14.768;2024-03-06T07:41:35;99699.72;;;6.94;100.00
46876;BME280;32866;50.160;14.768;2024-03-06T07:44:01;99690.25;;;7.09;100.00
46876;BME280;32866;50.160;14.768;2024-03-06T07:46:28;99743.78;;;7.61;100.00
46876;BME280;32866;50.160;14.768;2024-03-06T07:48:54;99745.19;;;7.73;100.00
46876;BME280;32866;50.160;14.768;2024-03-06T07:51:20;99750.06;;;7.85;100.00
46876;BME280;32866;50.160;14.768;2024-03-06T07:53:47;99710.47;;;7.73;100.00
46876;BME280;32866;50.160;14.768;2024-03-06T07:56:13;99743.44;;;8.41;100.00
46876;BME280;32866;50.160;14.768;2024-03-06T07:58:39;99746.03;;;8.75;100.00
46876;BME280;32866;50.160;14.768;2024-03-06T08:01:06;99749.94;;;9.18;100.00
46876;BME280;32866;50.160;14.768;2024-03-06T08:03:33;99744.56;;;10.60;100.00
46876;BME280;32866;50.160;14.768;2024-03-06T08:05:59;99750.34;;;12.82;100.00
46876;BME280;32866;50.160;14.768;2024-03-06T08:08:26;99752.03;;;13.36;100.00
46876;BME280;32866;50.160;14.768;2024-03-06T08:10:52;99703.06;;;12.27;100.00
46876;BME280;32866;50.160;14.768;2024-03-06T08:13:18;99758.94;;;12.84;100.00
46876;BME280;32866;50.160;14.768;2024-03-06T08:15:45;99754.13;;;14.08;100.00
46876;BME280;32866;50.160;14.768;2024-03-06T08:18:12;99762.72;;;15.71;100.00
46876;BME280;32866;50.160;14.768;2024-03-06T08:20:38;99766.53;;;16.25;100.00
46876;BME280;32866;50.160;14.768;2024-03-06T08:23:04;99730.09;;;15.05;100.00
46876;BME280;32866;50.160;14.768;2024-03-06T08:25:30;99758.19;;;15.12;100.00
46876;BME280;32866;50.160;14.768;2024-03-06T08:27:58;99717.22;;;14.83;100.00
46876;BME280;32866;50.160;14.768;2024-03-06T08:30:24;99714.09;;;13.94;100.00
46876;BME280;32866;50.160;14.768;2024-03-06T08:32:50;99765.13;;;14.58;100.00
46876;BME280;32866;50.160;14.768;2024-03-06T08:35:16;99721.06;;;13.77;100.00
46876;BME280;32866;50.160;14.768;2024-03-06T08:37:45;99720.44;;;14.72;100.00
46876;BME280;32866;50.160;14.768;2024-03-06T08:40:11;99724.53;;;14.58;100.00
46876;BME280;32866;50.160;14.768;2024-03-06T08:42:41;99758.75;;;14.70;100.00
46876;BME280;32866;50.160;14.768;2024-03-06T08:45:08;99762.00;;;14.37;100.00
46876;BME280;32866;50.160;14.768;2024-03-06T08:47:34;99759.38;;;16.43;100.00
46876;BME280;32866;50.160;14.768;2024-03-06T08:50:00;99758.53;;;17.24;93.66
46876;BME280;32866;50.160;14.768;2024-03-06T08:52:26;99764.72;;;17.19;93.88
46876;BME280;32866;50.160;14.768;2024-03-06T08:54:52;99771.25;;;17.46;92.29
46876;BME280;32866;50.160;14.768;2024-03-06T08:57:18;99787.41;;;16.84;93.27
46876;BME280;32866;50.160;14.768;2024-03-06T08:59:47;99739.13;;;16.37;94.31
46876;BME280;32866;50.160;14.768;2024-03-06T09:02:14;99772.66;;;17.11;92.79
46876;BME280;32866;50.160;14.768;2024-03-06T09:04:41;99773.84;;;18.09;86.38
46876;BME280;32866;50.160;14.768;2024-03-06T09:07:08;99773.25;;;18.55;75.79
46876;BME280;32866;50.160;14.768;2024-03-06T09:09:35;99760.78;;;16.05;81.54
46876;BME280;32866;50.160;14.768;2024-03-06T09:12:08;99728.88;;;14.19;90.28
46876;BME280;32866;50.160;14.768;2024-03-06T09:14:38;99745.56;;;14.65;94.63
46876;BME280;32866;50.160;14.768;2024-03-06T09:17:05;99765.78;;;15.82;92.35
46876;BME280;32866;50.160;14.768;2024-03-06T09:19:32;99776.56;;;16.13;87.42
46876;BME280;32866;50.160;14.768;2024-03-06T09:22:07;99751.91;;;14.34;90.49
46876;BME280;32866;50.160;14.768;2024-03-06T09:24:33;99744.16;;;13.48;96.39
46876;BME280;32866;50.160;14.768;2024-03-06T09:27:01;99779.63;;;13.99;96.99
46876;BME280;32866;50.160;14.768;2024-03-06T09:29:27;99779.69;;;13.55;98.13
46876;BME280;32866;50.160;14.768;2024-03-06T09:31:53;99779.94;;;13.13;100.00
46876;BME280;32866;50.160;14.768;2024-03-06T09:34:19;99748.81;;;12.81;100.00
46876;BME280;32866;50.160;14.768;2024-03-06T09:36:48;99785.28;;;13.29;99.35
46876;BME280;32866;50.160;14.768;2024-03-06T09:39:16;99763.69;;;13.06;100.00
46876;BME280;32866;50.160;14.768;2024-03-06T09:41:44;99729.00;;;12.86;99.84
46876;BME280;32866;50.160;14.768;2024-03-06T09:44:10;99779.41;;;13.40;100.00
46876;BME280;32866;50.160;14.768;2024-03-06T09:46:36;99772.59;;;13.98;99.68
46876;BME280;32866;50.160;14.768;2024-03-06T09:49:02;99738.84;;;13.85;98.67
46876;BME280;32866;50.160;14.768;2024-03-06T09:51:28;99785.50;;;13.57;100.00
46876;BME280;32866;50.160;14.768;2024-03-06T09:53:54;99801.22;;;12.99;100.00
46876;BME280;32866;50.160;14.768;2024-03-06T09:56:20;99778.00;;;12.40;100.00
46876;BME280;32866;50.160;14.768;2024-03-06T09:58:47;99745.13;;;11.72;100.00
46876;BME280;32866;50.160;14.768;2024-03-06T10:01:14;99725.38;;;11.35;100.00
46876;BME280;32866;50.160;14.768;2024-03-06T10:03:40;99783.50;;;11.59;100.00
46876;BME280;32866;50.160;14.768;2024-03-06T10:06:07;99788.34;;;11.68;100.00
46876;BME280;32866;50.160;14.768;2024-03-06T10:08:33;99764.19;;;11.63;100.00
46876;BME280;32866;50.160;14.768;2024-03-06T10:11:00;99777.47;;;12.32;100.00
46876;BME280;32866;50.160;14.768;2024-03-06T10:13:26;99760.00;;;12.39;100.00
46876;BME280;32866;50.160;14.768;2024-03-06T10:16:10;99762.63;;;12.04;100.00
46876;BME280;32866;50.160;14.768;2024-03-06T10:18:37;99783.63;;;12.11;100.00
46876;BME280;32866;50.160;14.768;2024-03-06T10:21:04;99771.28;;;11.47;100.00
46876;BME280;32866;50.160;14.768;2024-03-06T10:23:31;99786.56;;;11.48;100.00
46876;BME280;32866;50.160;14.768;2024-03-06T10:25:57;99785.13;;;11.14;100.00
46876;BME280;32866;50.160;14.768;2024-03-06T10:28:27;99775.72;;;11.28;100.00
46876;BME280;32866;50.160;14.768;2024-03-06T10:31:03;99783.66;;;11.10;100.00
46876;BME280;32866;50.160;14.768;2024-03-06T10:33:29;99773.34;;;11.14;100.00
46876;BME280;32866;50.160;14.768;2024-03-06T10:35:57;99768.94;;;11.33;100.00
46876;BME280;32866;50.160;14.768;2024-03-06T10:38:26;99778.13;;;11.56;100.00
46876;BME280;32866;50.160;14.768;2024-03-06T10:40:55;99779.91;;;11.62;100.00
46876;BME280;32866;50.160;14.768;2024-03-06T10:43:23;99789.06;;;12.75;100.00
46876;BME280;32866;50.160;14.768;2024-03-06T10:45:51;99785.59;;;13.31;99.96
46876;BME280;32866;50.160;14.768;2024-03-06T10:48:21;99792.34;;;12.95;100.00
46876;BME280;32866;50.160;14.768;2024-03-06T10:50:48;99790.22;;;12.13;100.00
46876;BME280;32866;50.160;14.768;2024-03-06T10:53:16;99739.19;;;11.02;100.00
46876;BME280;32866;50.160;14.768;2024-03-06T10:55:43;99740.78;;;10.54;100.00
46876;BME280;32866;50.160;14.768;2024-03-06T10:58:10;99747.63;;;10.13;100.00
46876;BME280;32866;50.160;14.768;2024-03-06T11:00:41;99788.19;;;10.18;100.00
46876;BME280;32866;50.160;14.768;2024-03-06T11:03:10;99781.56;;;9.99;100.00
46876;BME280;32866;50.160;14.768;2024-03-06T11:05:39;99786.25;;;9.98;100.00
46876;BME280;32866;50.160;14.768;2024-03-06T11:08:07;99746.00;;;9.79;100.00
46876;BME280;32866;50.160;14.768;2024-03-06T11:10:34;99780.63;;;10.06;100.00
46876;BME280;32866;50.160;14.768;2024-03-06T11:13:08;99778.94;;;10.28;100.00
46876;BME280;32866;50.160;14.768;2024-03-06T11:15:34;99773.53;;;10.77;100.00
46876;BME280;32866;50.160;14.768;2024-03-06T11:23:30;99764.75;;;15.43;94.48
46876;BME280;32866;50.160;14.768;2024-03-06T11:28:30;99741.72;;;14.13;90.49
46876;BME280;32866;50.160;14.768;2024-03-06T11:31:09;99771.38;;;13.11;99.28
46876;BME280;32866;50.160;14.768;2024-03-06T11:33:46;99768.13;;;12.55;100.00
46876;BME280;32866;50.160;14.768;2024-03-06T11:36:19;99767.31;;;12.68;100.00
46876;BME280;32866;50.160;14.768;2024-03-06T11:41:27;99761.31;;;13.52;97.97
46876;BME280;32866;50.160;14.768;2024-03-06T11:43:54;99766.91;;;13.26;99.92
46876;BME280;32866;50.160;14.768;2024-03-06T11:46:43;99768.34;;;12.96;100.00
46876;BME280;32866;50.160;14.768;2024-03-06T11:49:16;99756.22;;;12.58;100.00
46876;BME280;32866;50.160;14.768;2024-03-06T11:51:52;99757.31;;;12.61;100.00
46876;BME280;32866;50.160;14.768;2024-03-06T11:54:19;99756.91;;;13.32;100.00
46876;BME280;32866;50.160;14.768;2024-03-06T11:56:50;99752.97;;;15.24;92.42
46876;BME280;32866;50.160;14.768;2024-03-06T11:59:17;99743.81;;;16.21;87.86
46876;BME280;32866;50.160;14.768;2024-03-06T12:01:44;99709.22;;;16.98;82.34
46876;BME280;32866;50.160;14.768;2024-03-06T12:04:10;99753.44;;;17.08;78.35
46876;BME280;32866;50.160;14.768;2024-03-06T12:06:37;99719.19;;;15.47;82.31
46876;BME280;32866;50.160;14.768;2024-03-06T12:09:03;99708.28;;;14.51;86.30
46876;BME280;32866;50.160;14.768;2024-03-06T12:11:29;99742.66;;;14.09;91.01
46876;BME280;32866;50.160;14.768;2024-03-06T12:13:56;99708.31;;;14.01;90.88
46876;BME280;32866;50.160;14.768;2024-03-06T12:16:23;99743.56;;;15.39;88.78
46876;BME280;32866;50.160;14.768;2024-03-06T12:18:56;99730.91;;;14.87;85.16
46876;BME280;32866;50.160;14.768;2024-03-06T12:21:31;99729.81;;;13.31;91.74
46876;BME280;32866;50.160;14.768;2024-03-06T12:24:12;99727.16;;;12.22;98.32
46876;BME280;32866;50.160;14.768;2024-03-06T12:26:41;99696.84;;;11.32;100.00
46876;BME280;32866;50.160;14.768;2024-03-06T12:29:09;99731.25;;;11.21;100.00
46876;BME280;32866;50.160;14.768;2024-03-06T12:31:37;99677.06;;;10.83;100.00
46876;BME280;32866;50.160;14.768;2024-03-06T12:34:04;99725.91;;;11.30;100.00
46876;BME280;32866;50.160;14.768;2024-03-06T12:36:30;99726.72;;;11.43;100.00
46876;BME280;32866;50.160;14.768;2024-03-06T12:39:01;99684.13;;;12.41;100.00
46876;BME280;32866;50.160;14.768;2024-03-06T12:41:27;99711.13;;;14.88;90.94
46876;BME280;32866;50.160;14.768;2024-03-06T12:43:54;99709.78;;;16.39;80.30
46876;BME280;32866;50.160;14.768;2024-03-06T12:46:23;99711.88;;;15.07;81.45
46876;BME280;32866;50.160;14.768;2024-03-06T12:48:49;99718.97;;;13.59;86.48
46876;BME280;32866;50.160;14.768;2024-03-06T12:51:15;99718.91;;;13.05;91.17
46876;BME280;32866;50.160;14.768;2024-03-06T12:53:41;99683.97;;;12.58;94.46
46876;BME280;32866;50.160;14.768;2024-03-06T12:56:08;99713.38;;;12.83;94.19
46876;BME280;32866;50.160;14.768;2024-03-06T12:58:34;99708.44;;;12.43;91.69